createdAt,value
2022-12-12T00:07:31.110Z,99.90
2022-12-12T00:22:35.557Z,99.90
2022-12-12T00:37:40.081Z,99.90
2022-12-12T00:52:44.529Z,99.90
2022-12-12T01:07:49.042Z,99.90
2022-12-12T01:22:53.803Z,99.90
2022-12-12T01:37:58.233Z,99.90
2022-12-12T01:53:02.827Z,99.90
2022-12-12T02:08:08.558Z,99.90
2022-12-12T02:23:47.010Z,99.90
2022-12-12T02:38:56.599Z,99.90
2022-12-12T02:54:01.745Z,99.90
2022-12-12T03:09:17.496Z,99.90
2022-12-12T03:24:28.819Z,99.90
2022-12-12T03:39:39.889Z,99.90
2022-12-12T03:54:49.135Z,99.90
2022-12-12T04:10:11.781Z,99.90
2022-12-12T04:25:27.990Z,99.90
2022-12-12T04:40:35.958Z,99.90
2022-12-12T04:55:45.414Z,99.90
2022-12-12T05:10:53.358Z,99.90
2022-12-12T05:25:57.764Z,99.90
2022-12-12T05:41:02.190Z,99.90
2022-12-12T05:56:08.807Z,99.90
2022-12-12T06:11:13.334Z,99.90
2022-12-12T06:26:20.238Z,99.90
2022-12-12T06:41:26.803Z,99.90
2022-12-12T06:56:31.600Z,99.90
2022-12-12T07:11:36.141Z,99.90
2022-12-12T07:26:40.708Z,99.90
2022-12-12T07:41:45.198Z,99.90
2022-12-12T07:56:49.687Z,99.90
2022-12-12T08:11:56.139Z,99.90
2022-12-12T08:27:00.759Z,99.90
2022-12-12T08:42:05.409Z,99.90
2022-12-12T08:57:10.039Z,99.90
2022-12-12T09:12:14.560Z,99.90
2022-12-12T09:27:19.015Z,99.90
2022-12-12T09:42:25.858Z,99.90
2022-12-12T09:57:34.787Z,99.90
2022-12-12T10:12:39.570Z,99.90
2022-12-12T10:27:44.563Z,99.90
2022-12-12T10:42:56.439Z,99.90
2022-12-12T10:58:04.206Z,99.90
2022-12-12T11:13:17.763Z,99.90
2022-12-12T11:28:24.298Z,99.90
2022-12-12T11:43:30.317Z,99.90
2022-12-12T11:58:39.543Z,99.90
2022-12-12T12:14:13.464Z,99.90
2022-12-12T12:29:37.789Z,99.50
2022-12-12T12:44:49.169Z,99.10
2022-12-12T12:59:58.143Z,99.10
2022-12-12T13:15:06.182Z,99.40
2022-12-12T13:30:20.578Z,99.20
2022-12-12T13:45:55.124Z,99.30
2022-12-12T14:01:31.505Z,99.00
2022-12-12T14:16:37.110Z,98.70
2022-12-12T14:31:48.539Z,98.20
2022-12-12T14:46:53.069Z,98.80
2022-12-12T15:02:00.131Z,98.70
2022-12-12T15:17:07.584Z,99.00
2022-12-12T15:32:19.853Z,99.40
2022-12-12T15:47:24.567Z,99.60
2022-12-12T16:02:32.071Z,99.50
2022-12-12T16:17:36.852Z,99.60
2022-12-12T16:32:44.383Z,99.50
2022-12-12T16:47:49.491Z,99.20
2022-12-12T17:02:54.026Z,99.40
2022-12-12T17:17:58.871Z,99.30
2022-12-12T17:33:18.934Z,99.40
2022-12-12T17:48:23.477Z,99.70
2022-12-12T18:03:28.092Z,99.90
2022-12-12T18:18:32.624Z,99.90
2022-12-12T18:33:37.260Z,99.90
2022-12-12T18:48:44.727Z,99.90
2022-12-12T19:03:51.514Z,99.90
2022-12-12T19:18:56.100Z,99.90
2022-12-12T19:34:00.578Z,99.90
2022-12-12T19:49:08.403Z,99.90
2022-12-12T20:04:17.888Z,99.90
2022-12-12T20:19:23.180Z,99.90
2022-12-12T20:34:27.837Z,99.90
2022-12-12T20:49:32.614Z,99.90
2022-12-12T21:04:37.498Z,99.90
2022-12-12T21:35:27.033Z,99.90
2022-12-12T21:50:31.945Z,99.90
2022-12-12T22:05:36.482Z,99.90
2022-12-12T22:20:40.874Z,99.90
2022-12-12T22:35:45.356Z,99.90
2022-12-12T22:50:49.863Z,99.90
2022-12-12T23:05:54.336Z,99.90
2022-12-12T23:20:58.891Z,99.90
2022-12-12T23:36:03.391Z,99.90
2022-12-12T23:51:07.958Z,99.90
